createdAt,value
2022-11-16T00:00:04.291Z,6.67
2022-11-16T00:00:22.078Z,6.65
2022-11-16T00:00:46.900Z,6.67
2022-11-16T00:01:01.170Z,6.66
2022-11-16T00:01:15.935Z,6.64
2022-11-16T00:01:31.907Z,6.64
2022-11-16T00:01:45.149Z,6.63
2022-11-16T00:01:58.027Z,6.63
2022-11-16T00:02:11.252Z,6.63
2022-11-16T00:02:24.093Z,6.63
2022-11-16T00:02:36.790Z,6.62
2022-11-16T00:02:51.886Z,6.62
2022-11-16T00:03:06.226Z,6.62
2022-11-16T00:03:18.858Z,6.61
2022-11-16T00:03:32.044Z,6.62
2022-11-16T00:03:44.782Z,6.61
2022-11-16T00:03:59.884Z,6.61
2022-11-16T00:04:13.527Z,6.62
2022-11-16T00:04:26.153Z,6.61
2022-11-16T00:04:39.112Z,6.59
2022-11-16T00:04:51.752Z,6.59
2022-11-16T00:05:05.016Z,6.59
2022-11-16T00:05:19.759Z,6.58
2022-11-16T00:05:34.664Z,6.58
2022-11-16T00:05:47.399Z,6.56
2022-11-16T00:06:02.618Z,6.58
2022-11-16T00:06:15.601Z,6.57
2022-11-16T00:06:29.318Z,6.59
2022-11-16T00:06:41.964Z,6.57
2022-11-16T00:06:54.616Z,6.59
2022-11-16T00:07:07.537Z,6.59
2022-11-16T00:07:21.355Z,6.60
2022-11-16T00:07:34.054Z,6.59
2022-11-16T00:07:46.671Z,6.59
2022-11-16T00:07:59.229Z,6.59
2022-11-16T00:08:11.775Z,6.59
2022-11-16T00:08:24.646Z,6.59
2022-11-16T00:08:39.287Z,6.58
2022-11-16T00:09:14.515Z,6.57
2022-11-16T00:09:29.750Z,6.58
2022-11-16T00:09:42.324Z,6.58
2022-11-16T00:09:54.907Z,6.59
2022-11-16T00:10:08.412Z,6.59
2022-11-16T00:10:21.214Z,6.57
2022-11-16T00:10:33.799Z,6.57
2022-11-16T00:10:46.622Z,6.57
2022-11-16T00:11:05.438Z,6.56
2022-11-16T00:11:19.143Z,6.59
2022-11-16T00:11:33.454Z,6.59
2022-11-16T00:11:46.372Z,6.59
2022-11-16T00:12:00.893Z,6.58
2022-11-16T00:12:13.539Z,6.58
2022-11-16T00:12:26.148Z,6.58
2022-11-16T00:12:39.620Z,6.59
2022-11-16T00:12:52.242Z,6.59
2022-11-16T00:13:05.818Z,6.59
2022-11-16T00:13:18.535Z,6.58
2022-11-16T00:13:32.349Z,6.56
2022-11-16T00:13:45.003Z,6.56
2022-11-16T00:13:57.574Z,6.57
2022-11-16T00:14:10.336Z,6.57
2022-11-16T00:14:26.309Z,6.55
2022-11-16T00:14:38.897Z,6.56
2022-11-16T00:14:51.791Z,6.57
2022-11-16T00:15:06.977Z,6.56
2022-11-16T00:15:19.823Z,6.57
2022-11-16T00:15:32.395Z,6.56
2022-11-16T00:15:55.429Z,6.55
2022-11-16T00:16:09.259Z,6.56
2022-11-16T00:16:21.912Z,6.56
2022-11-16T00:16:34.726Z,6.57
2022-11-16T00:16:47.544Z,6.56
2022-11-16T00:17:00.867Z,6.56
2022-11-16T00:17:14.427Z,6.56
2022-11-16T00:17:27.002Z,6.56
2022-11-16T00:17:39.619Z,6.56
2022-11-16T00:17:52.215Z,6.56
2022-11-16T00:18:04.810Z,6.56
2022-11-16T00:18:17.399Z,6.56
2022-11-16T00:18:30.868Z,6.55
2022-11-16T00:18:44.789Z,6.56
2022-11-16T00:18:58.915Z,6.56
2022-11-16T00:19:12.213Z,6.55
2022-11-16T00:19:25.675Z,6.55
2022-11-16T00:19:38.307Z,6.55
2022-11-16T00:19:52.191Z,6.55
2022-11-16T00:20:05.777Z,6.56
2022-11-16T00:20:18.465Z,6.56
2022-11-16T00:20:31.023Z,6.56
2022-11-16T00:20:43.611Z,6.53
2022-11-16T00:20:56.418Z,6.55
2022-11-16T00:21:09.155Z,6.55
2022-11-16T00:21:21.734Z,6.55
2022-11-16T00:21:35.797Z,6.55
2022-11-16T00:21:48.440Z,6.54
2022-11-16T00:22:01.031Z,6.55
2022-11-16T00:22:13.699Z,6.55
2022-11-16T00:22:26.292Z,6.55
2022-11-16T00:22:38.885Z,6.54
2022-11-16T00:22:51.455Z,6.54
2022-11-16T00:23:05.040Z,6.53
2022-11-16T00:23:18.009Z,6.53
2022-11-16T00:23:30.574Z,6.53
2022-11-16T00:23:43.133Z,6.52
2022-11-16T00:23:55.998Z,6.53
2022-11-16T00:24:13.467Z,6.54
2022-11-16T00:24:26.065Z,6.53
2022-11-16T00:24:38.947Z,6.54
2022-11-16T00:24:51.528Z,6.53
2022-11-16T00:25:04.868Z,6.53
2022-11-16T00:25:17.455Z,6.51
2022-11-16T00:25:31.011Z,6.54
2022-11-16T00:25:43.966Z,6.53
2022-11-16T00:26:01.596Z,6.52
2022-11-16T00:26:14.240Z,6.53
2022-11-16T00:26:26.892Z,6.53
2022-11-16T00:26:42.654Z,6.54
2022-11-16T00:26:56.265Z,6.53
2022-11-16T00:27:08.938Z,6.54
2022-11-16T00:27:21.531Z,6.53
2022-11-16T00:27:34.108Z,6.54
2022-11-16T00:27:46.711Z,6.53
2022-11-16T00:27:59.434Z,6.51
2022-11-16T00:28:13.056Z,6.52
2022-11-16T00:28:25.638Z,6.52
2022-11-16T00:28:38.378Z,6.53
2022-11-16T00:28:52.778Z,6.51
2022-11-16T00:29:05.363Z,6.52
2022-11-16T00:29:20.690Z,6.51
2022-11-16T00:29:34.254Z,6.50
2022-11-16T00:29:46.937Z,6.52
2022-11-16T00:29:59.732Z,6.51
2022-11-16T00:30:13.116Z,6.51
2022-11-16T00:30:25.692Z,6.53
2022-11-16T00:30:38.928Z,6.53
2022-11-16T00:30:58.504Z,6.53
2022-11-16T00:31:11.618Z,6.52
2022-11-16T00:31:25.894Z,6.52
2022-11-16T00:31:38.481Z,6.53
2022-11-16T00:31:52.425Z,6.53
2022-11-16T00:32:05.272Z,6.53
2022-11-16T00:32:17.883Z,6.54
2022-11-16T00:32:31.385Z,6.55
2022-11-16T00:32:44.946Z,6.55
2022-11-16T00:33:00.404Z,6.57
2022-11-16T00:33:15.510Z,6.57
2022-11-16T00:33:28.490Z,6.57
2022-11-16T00:33:41.353Z,6.59
2022-11-16T00:33:53.910Z,6.58
2022-11-16T00:34:06.508Z,6.59
2022-11-16T00:34:19.894Z,6.57
2022-11-16T00:34:33.606Z,6.57
2022-11-16T00:34:46.184Z,6.59
2022-11-16T00:34:58.762Z,6.58
2022-11-16T00:35:11.327Z,6.59
2022-11-16T00:35:23.923Z,6.58
2022-11-16T00:35:39.529Z,6.59
2022-11-16T00:35:52.122Z,6.59
2022-11-16T00:36:06.440Z,6.57
2022-11-16T00:36:19.441Z,6.58
2022-11-16T00:36:33.019Z,6.58
2022-11-16T00:36:45.933Z,6.59
2022-11-16T00:36:58.523Z,6.58
2022-11-16T00:37:11.110Z,6.59
2022-11-16T00:37:23.703Z,6.59
2022-11-16T00:37:36.285Z,6.57
2022-11-16T00:37:50.041Z,6.60
2022-11-16T00:38:02.952Z,6.59
2022-11-16T00:38:15.791Z,6.59
2022-11-16T00:38:28.707Z,6.59
2022-11-16T00:38:42.092Z,6.57
2022-11-16T00:38:54.718Z,6.59
2022-11-16T00:39:07.306Z,6.59
2022-11-16T00:39:21.210Z,6.59
2022-11-16T00:39:34.405Z,6.59
2022-11-16T00:39:46.939Z,6.59
2022-11-16T00:39:59.514Z,6.60
2022-11-16T00:40:12.823Z,6.59
2022-11-16T00:40:25.418Z,6.59
2022-11-16T00:40:37.993Z,6.59
2022-11-16T00:40:50.609Z,6.59
2022-11-16T00:41:04.707Z,6.60
2022-11-16T00:41:17.286Z,6.60
2022-11-16T00:41:29.887Z,6.57
2022-11-16T00:41:44.936Z,6.60
2022-11-16T00:41:57.612Z,6.60
2022-11-16T00:42:10.178Z,6.60
2022-11-16T00:42:23.750Z,6.60
2022-11-16T00:42:36.623Z,6.61
2022-11-16T00:42:49.200Z,6.60
2022-11-16T00:43:01.786Z,6.60
2022-11-16T00:43:14.376Z,6.60
2022-11-16T00:43:27.707Z,6.61
2022-11-16T00:43:40.295Z,6.60
2022-11-16T00:43:53.938Z,6.61
2022-11-16T00:44:06.816Z,6.61
2022-11-16T00:44:19.398Z,6.63
2022-11-16T00:44:31.998Z,6.62
2022-11-16T00:44:44.568Z,6.61
2022-11-16T00:44:57.135Z,6.62
2022-11-16T00:45:10.679Z,6.62
2022-11-16T00:45:23.285Z,6.61
2022-11-16T00:45:38.503Z,6.61
2022-11-16T00:45:51.094Z,6.59
2022-11-16T00:46:03.887Z,6.59
2022-11-16T00:46:16.654Z,6.58
2022-11-16T00:46:29.246Z,6.57
2022-11-16T00:46:41.930Z,6.59
2022-11-16T00:46:54.560Z,6.57
2022-11-16T00:47:08.463Z,6.57
2022-11-16T00:47:22.461Z,6.58
2022-11-16T00:47:35.062Z,6.58
2022-11-16T00:47:47.635Z,6.57
2022-11-16T00:48:00.761Z,6.58
2022-11-16T00:48:13.631Z,6.58
2022-11-16T00:48:26.598Z,6.56
2022-11-16T00:48:40.209Z,6.58
2022-11-16T00:48:53.038Z,6.58
2022-11-16T00:49:05.816Z,6.59
2022-11-16T00:49:18.443Z,6.57
2022-11-16T00:49:31.038Z,6.58
2022-11-16T00:49:43.613Z,6.59
2022-11-16T00:49:57.184Z,6.59
2022-11-16T00:50:10.020Z,6.58
2022-11-16T00:50:22.580Z,6.57
2022-11-16T00:50:35.193Z,6.58
2022-11-16T00:50:47.922Z,6.58
2022-11-16T00:51:00.529Z,6.56
2022-11-16T00:51:13.219Z,6.56
2022-11-16T00:51:26.854Z,6.56
2022-11-16T00:51:39.448Z,6.56
2022-11-16T00:51:52.289Z,6.55
2022-11-16T00:52:04.984Z,6.54
2022-11-16T00:52:17.610Z,6.53
2022-11-16T00:52:30.379Z,6.52
2022-11-16T00:52:43.991Z,6.53
2022-11-16T00:52:56.554Z,6.53
2022-11-16T00:53:12.955Z,6.53
2022-11-16T00:53:25.550Z,6.53
2022-11-16T00:53:38.130Z,6.56
2022-11-16T00:53:50.695Z,6.54
2022-11-16T00:54:05.764Z,6.55
2022-11-16T00:54:18.347Z,6.54
2022-11-16T00:54:30.911Z,6.55
2022-11-16T00:54:43.493Z,6.53
2022-11-16T00:54:56.137Z,6.53
2022-11-16T00:55:08.822Z,6.54
2022-11-16T00:55:21.407Z,6.54
2022-11-16T00:55:34.626Z,6.52
2022-11-16T00:55:47.945Z,6.52
2022-11-16T00:56:01.700Z,6.52
2022-11-16T00:56:14.551Z,6.53
2022-11-16T00:56:27.117Z,6.52
2022-11-16T00:56:40.404Z,6.53
2022-11-16T00:56:54.372Z,6.53
2022-11-16T00:57:06.956Z,6.53
2022-11-16T00:57:19.523Z,6.53
2022-11-16T00:57:32.073Z,6.53
2022-11-16T00:57:45.647Z,6.53
2022-11-16T00:57:58.240Z,6.52
2022-11-16T00:58:11.143Z,6.52
2022-11-16T00:58:24.090Z,6.53
2022-11-16T00:58:36.903Z,6.52
2022-11-16T00:58:49.769Z,6.52
2022-11-16T00:59:02.356Z,6.52
2022-11-16T00:59:15.974Z,6.53
2022-11-16T00:59:28.546Z,6.52
2022-11-16T00:59:41.138Z,6.53
2022-11-16T00:59:53.715Z,6.53
2022-11-16T01:00:08.449Z,6.53
2022-11-16T01:00:21.315Z,6.53
2022-11-16T01:00:34.882Z,6.54
2022-11-16T01:00:47.761Z,6.52
2022-11-16T01:01:04.945Z,6.53
2022-11-16T01:01:18.991Z,6.52
2022-11-16T01:01:31.661Z,6.53
2022-11-16T01:01:44.306Z,6.54
2022-11-16T01:01:57.903Z,6.56
2022-11-16T01:02:10.575Z,6.55
2022-11-16T01:02:23.194Z,6.55
2022-11-16T01:02:35.764Z,6.57
2022-11-16T01:02:48.334Z,6.55
2022-11-16T01:03:00.912Z,6.57
2022-11-16T01:03:13.634Z,6.57
2022-11-16T01:03:27.223Z,6.57
2022-11-16T01:03:40.297Z,6.58
2022-11-16T01:03:52.885Z,6.59
2022-11-16T01:04:05.483Z,6.59
2022-11-16T01:04:18.031Z,6.60
2022-11-16T01:04:30.591Z,6.60
2022-11-16T01:04:43.195Z,6.60
2022-11-16T01:04:56.794Z,6.61
2022-11-16T01:05:10.358Z,6.60
2022-11-16T01:05:23.563Z,6.61
2022-11-16T01:05:36.346Z,6.61
2022-11-16T01:05:48.920Z,6.63
2022-11-16T01:06:02.625Z,6.62
2022-11-16T01:06:16.382Z,6.63
2022-11-16T01:06:29.995Z,6.62
2022-11-16T01:06:42.555Z,6.64
2022-11-16T01:06:55.180Z,6.62
2022-11-16T01:07:07.875Z,6.63
2022-11-16T01:07:20.570Z,6.64
2022-11-16T01:07:34.773Z,6.64
2022-11-16T01:07:47.391Z,6.65
2022-11-16T01:08:00.135Z,6.66
2022-11-16T01:08:13.740Z,6.66
2022-11-16T01:08:26.309Z,6.66
2022-11-16T01:08:40.499Z,6.65
2022-11-16T01:08:53.151Z,6.67
2022-11-16T01:09:05.742Z,6.67
2022-11-16T01:09:18.333Z,6.66
2022-11-16T01:09:30.925Z,6.67
2022-11-16T01:09:44.485Z,6.68
2022-11-16T01:09:57.329Z,6.68
2022-11-16T01:10:12.581Z,6.66
2022-11-16T01:10:27.259Z,6.68
2022-11-16T01:10:40.797Z,6.68
2022-11-16T01:10:53.378Z,6.68
2022-11-16T01:11:21.985Z,6.67
2022-11-16T01:11:52.784Z,6.67
2022-11-16T01:12:09.596Z,6.68
2022-11-16T01:12:22.146Z,6.68
2022-11-16T01:12:35.195Z,6.68
2022-11-16T01:12:48.762Z,6.67
2022-11-16T01:13:02.350Z,6.68
2022-11-16T01:13:14.866Z,6.70
2022-11-16T01:13:27.629Z,6.69
2022-11-16T01:13:40.174Z,6.69
2022-11-16T01:13:53.258Z,6.69
2022-11-16T01:14:08.522Z,6.69
2022-11-16T01:14:21.060Z,6.69
2022-11-16T01:14:33.906Z,6.69
2022-11-16T01:14:47.566Z,6.70
2022-11-16T01:15:01.254Z,6.69
2022-11-16T01:15:14.234Z,6.70
2022-11-16T01:15:28.194Z,6.69
2022-11-16T01:15:47.624Z,6.67
2022-11-16T01:16:00.196Z,6.67
2022-11-16T01:16:14.756Z,6.67
2022-11-16T01:16:27.333Z,6.66
2022-11-16T01:16:39.906Z,6.67
2022-11-16T01:16:53.438Z,6.65
2022-11-16T01:17:06.526Z,6.65
2022-11-16T01:17:19.219Z,6.67
2022-11-16T01:17:31.868Z,6.65
2022-11-16T01:17:44.920Z,6.65
2022-11-16T01:17:57.754Z,6.66
2022-11-16T01:18:11.310Z,6.65
2022-11-16T01:18:23.903Z,6.65
2022-11-16T01:18:37.215Z,6.65
2022-11-16T01:18:51.137Z,6.66
2022-11-16T01:19:04.638Z,6.64
2022-11-16T01:19:17.516Z,6.65
2022-11-16T01:19:30.526Z,6.66
2022-11-16T01:19:44.197Z,6.66
2022-11-16T01:19:56.770Z,6.66
2022-11-16T01:20:13.551Z,6.66
2022-11-16T01:20:28.217Z,6.66
2022-11-16T01:20:41.333Z,6.67
2022-11-16T01:20:54.387Z,6.67
2022-11-16T01:21:07.646Z,6.67
2022-11-16T01:21:22.323Z,6.67
2022-11-16T01:21:35.069Z,6.70
2022-11-16T01:21:47.795Z,6.68
2022-11-16T01:22:00.951Z,6.70
2022-11-16T01:22:13.593Z,6.70
2022-11-16T01:22:27.345Z,6.69
2022-11-16T01:22:40.534Z,6.71
2022-11-16T01:22:53.656Z,6.71
2022-11-16T01:23:06.230Z,6.72
2022-11-16T01:23:18.864Z,6.72
2022-11-16T01:23:31.431Z,6.74
2022-11-16T01:23:44.302Z,6.73
2022-11-16T01:23:57.264Z,6.73
2022-11-16T01:24:10.848Z,6.73
2022-11-16T01:24:24.829Z,6.73
2022-11-16T01:24:37.464Z,6.73
2022-11-16T01:24:50.051Z,6.73
2022-11-16T01:25:03.102Z,6.73
2022-11-16T01:25:16.511Z,6.71
2022-11-16T01:25:29.088Z,6.71
2022-11-16T01:25:41.641Z,6.73
2022-11-16T01:25:57.694Z,6.73
2022-11-16T01:26:10.334Z,6.74
2022-11-16T01:26:23.027Z,6.72
2022-11-16T01:26:35.580Z,6.72
2022-11-16T01:26:48.192Z,6.73
2022-11-16T01:27:01.858Z,6.74
2022-11-16T01:27:15.828Z,6.73
2022-11-16T01:27:29.079Z,6.73
2022-11-16T01:27:43.076Z,6.73
2022-11-16T01:27:55.934Z,6.72
2022-11-16T01:28:08.549Z,6.73
2022-11-16T01:28:21.118Z,6.74
2022-11-16T01:28:35.003Z,6.73
2022-11-16T01:28:47.761Z,6.74
2022-11-16T01:29:00.458Z,6.74
2022-11-16T01:29:13.128Z,6.74
2022-11-16T01:29:26.738Z,6.75
2022-11-16T01:29:39.364Z,6.75
2022-11-16T01:29:52.959Z,6.75
2022-11-16T01:30:07.607Z,6.75
2022-11-16T01:30:20.277Z,6.76
2022-11-16T01:30:32.826Z,6.75
2022-11-16T01:30:48.291Z,6.76
2022-11-16T01:31:01.189Z,6.77
2022-11-16T01:31:14.089Z,6.77
2022-11-16T01:31:27.727Z,6.76
2022-11-16T01:31:40.325Z,6.78
2022-11-16T01:31:52.897Z,6.77
2022-11-16T01:32:06.096Z,6.79
2022-11-16T01:32:18.809Z,6.80
2022-11-16T01:32:31.672Z,6.79
2022-11-16T01:32:45.312Z,6.80
2022-11-16T01:32:57.918Z,6.81
2022-11-16T01:33:10.562Z,6.79
2022-11-16T01:33:23.255Z,6.82
2022-11-16T01:33:35.984Z,6.82
2022-11-16T01:33:48.573Z,6.81
2022-11-16T01:34:01.161Z,6.82
2022-11-16T01:34:14.812Z,6.82
2022-11-16T01:34:27.447Z,6.82
2022-11-16T01:34:40.040Z,6.82
2022-11-16T01:34:52.604Z,6.82
2022-11-16T01:35:06.349Z,6.83
2022-11-16T01:35:19.420Z,6.83
2022-11-16T01:35:32.023Z,6.82
2022-11-16T01:35:44.618Z,6.83
2022-11-16T01:35:58.250Z,6.83
2022-11-16T01:36:14.716Z,6.83
2022-11-16T01:36:27.564Z,6.82
2022-11-16T01:36:40.213Z,6.83
2022-11-16T01:36:52.931Z,6.82
2022-11-16T01:37:05.808Z,6.84
2022-11-16T01:37:19.148Z,6.83
2022-11-16T01:37:32.561Z,6.82
2022-11-16T01:37:46.548Z,6.83
2022-11-16T01:37:59.109Z,6.82
2022-11-16T01:38:11.910Z,6.82
2022-11-16T01:38:29.619Z,6.82
2022-11-16T01:38:43.151Z,6.83
2022-11-16T01:38:55.726Z,6.83
2022-11-16T01:39:09.395Z,6.83
2022-11-16T01:39:22.111Z,6.83
2022-11-16T01:39:34.816Z,6.83
2022-11-16T01:39:49.019Z,6.82
2022-11-16T01:40:01.707Z,6.82
2022-11-16T01:40:14.528Z,6.82
2022-11-16T01:40:28.276Z,6.82
2022-11-16T01:40:41.100Z,6.80
2022-11-16T01:40:53.699Z,6.81
2022-11-16T01:41:07.566Z,6.82
2022-11-16T01:41:22.128Z,6.82
2022-11-16T01:41:34.966Z,6.81
2022-11-16T01:41:47.992Z,6.81
2022-11-16T01:42:00.566Z,6.81
2022-11-16T01:42:18.664Z,6.83
2022-11-16T01:42:33.549Z,6.82
2022-11-16T01:42:46.145Z,6.82
2022-11-16T01:42:58.734Z,6.81
2022-11-16T01:43:16.170Z,6.81
2022-11-16T01:43:29.090Z,6.81
2022-11-16T01:43:54.882Z,6.81
2022-11-16T01:44:46.742Z,6.82
2022-11-16T01:45:07.871Z,6.80
2022-11-16T01:45:26.094Z,6.80
2022-11-16T01:45:41.182Z,6.80
2022-11-16T01:45:53.863Z,6.80
2022-11-16T01:46:07.446Z,6.80
2022-11-16T01:46:20.526Z,6.77
2022-11-16T01:46:33.511Z,6.77
2022-11-16T01:46:46.037Z,6.77
2022-11-16T01:46:58.914Z,6.75
2022-11-16T01:47:13.516Z,6.75
2022-11-16T01:47:26.210Z,6.76
2022-11-16T01:47:39.749Z,6.76
2022-11-16T01:47:54.483Z,6.75
2022-11-16T01:48:08.264Z,6.75
2022-11-16T01:48:25.196Z,6.75
2022-11-16T01:48:38.403Z,6.75
2022-11-16T01:48:54.786Z,6.74
2022-11-16T01:49:12.258Z,6.73
2022-11-16T01:49:27.594Z,6.74
2022-11-16T01:49:44.328Z,6.74
2022-11-16T01:50:01.829Z,6.74
2022-11-16T01:50:17.041Z,6.74
2022-11-16T01:50:30.775Z,6.74
2022-11-16T01:50:45.385Z,6.74
2022-11-16T01:50:58.358Z,6.73
2022-11-16T01:51:11.274Z,6.73
2022-11-16T01:51:24.667Z,6.74
2022-11-16T01:51:38.212Z,6.75
2022-11-16T01:51:54.725Z,6.74
2022-11-16T01:52:11.440Z,6.73
2022-11-16T01:52:30.514Z,6.73
2022-11-16T01:52:47.831Z,6.72
2022-11-16T01:53:04.080Z,6.72
2022-11-16T01:53:16.914Z,6.72
2022-11-16T01:53:29.512Z,6.72
2022-11-16T01:53:42.242Z,6.72
2022-11-16T01:53:55.523Z,6.72
2022-11-16T01:54:13.349Z,6.73
2022-11-16T01:54:27.512Z,6.73
2022-11-16T01:54:43.921Z,6.73
2022-11-16T01:54:56.590Z,6.73
2022-11-16T01:55:11.146Z,6.74
2022-11-16T01:55:25.176Z,6.75
2022-11-16T01:55:40.350Z,6.73
2022-11-16T01:55:54.421Z,6.74
2022-11-16T01:56:08.378Z,6.75
2022-11-16T01:56:21.779Z,6.75
2022-11-16T01:56:36.757Z,6.76
2022-11-16T01:56:52.954Z,6.76
2022-11-16T01:57:09.408Z,6.75
2022-11-16T01:57:26.177Z,6.75
2022-11-16T01:57:43.564Z,6.76
2022-11-16T01:57:56.787Z,6.77
2022-11-16T01:58:12.375Z,6.76
2022-11-16T01:58:26.370Z,6.77
2022-11-16T01:58:39.118Z,6.76
2022-11-16T01:58:52.332Z,6.77
2022-11-16T01:59:05.786Z,6.78
2022-11-16T01:59:19.889Z,6.79
2022-11-16T01:59:32.975Z,6.79
2022-11-16T01:59:48.934Z,6.79
2022-11-16T02:00:04.768Z,6.78
2022-11-16T02:00:18.444Z,6.80
2022-11-16T02:00:31.062Z,6.80
2022-11-16T02:00:43.688Z,6.80
2022-11-16T02:00:56.301Z,6.80
2022-11-16T02:01:09.910Z,6.80
2022-11-16T02:01:22.554Z,6.81
2022-11-16T02:01:35.187Z,6.80
2022-11-16T02:01:47.779Z,6.80
2022-11-16T02:02:01.244Z,6.80
2022-11-16T02:02:13.855Z,6.81
2022-11-16T02:02:26.546Z,6.81
2022-11-16T02:02:40.127Z,6.80
2022-11-16T02:02:52.804Z,6.81
2022-11-16T02:03:05.380Z,6.81
2022-11-16T02:03:18.853Z,6.81
2022-11-16T02:03:31.477Z,6.81
2022-11-16T02:03:45.085Z,6.83
2022-11-16T02:03:57.680Z,6.81
2022-11-16T02:04:11.067Z,6.83
2022-11-16T02:04:23.650Z,6.82
2022-11-16T02:04:36.238Z,6.81
2022-11-16T02:04:51.788Z,6.81
2022-11-16T02:05:06.226Z,6.83
2022-11-16T02:05:23.091Z,6.81
2022-11-16T02:05:46.923Z,6.83
2022-11-16T02:06:23.052Z,6.84
2022-11-16T02:06:52.545Z,6.81
2022-11-16T02:07:17.820Z,6.82
2022-11-16T02:08:12.136Z,6.81
2022-11-16T02:09:00.122Z,6.82
2022-11-16T02:09:50.082Z,6.84
2022-11-16T02:10:14.370Z,6.85
2022-11-16T02:10:51.604Z,6.85
2022-11-16T02:11:18.620Z,6.85
2022-11-16T02:11:59.840Z,6.86
2022-11-16T02:12:31.107Z,6.87
2022-11-16T02:13:00.734Z,6.87
2022-11-16T02:13:32.025Z,6.86
2022-11-16T02:13:53.688Z,6.88
2022-11-16T02:14:20.526Z,6.87
2022-11-16T02:14:46.442Z,6.89
2022-11-16T02:15:10.746Z,6.88
2022-11-16T02:15:27.806Z,6.88
2022-11-16T02:15:43.654Z,6.89
2022-11-16T02:16:02.069Z,6.87
2022-11-16T02:16:26.218Z,6.88
2022-11-16T02:16:48.355Z,6.88
2022-11-16T02:17:10.832Z,6.90
2022-11-16T02:17:35.734Z,6.90
2022-11-16T02:17:55.958Z,6.90
2022-11-16T02:18:20.453Z,6.91
2022-11-16T02:18:38.713Z,6.90
2022-11-16T02:19:02.047Z,6.91
2022-11-16T02:19:36.700Z,6.91
2022-11-16T02:20:15.818Z,6.91
2022-11-16T02:21:02.138Z,6.91
2022-11-16T02:21:31.961Z,6.92
2022-11-16T02:21:51.416Z,6.93
2022-11-16T02:22:14.145Z,6.92
2022-11-16T02:22:46.048Z,6.92
2022-11-16T02:23:26.916Z,6.92
2022-11-16T02:24:15.765Z,6.91
2022-11-16T02:24:45.945Z,6.93
2022-11-16T02:25:03.867Z,6.91
2022-11-16T02:25:23.868Z,6.92
2022-11-16T02:25:46.999Z,6.92
2022-11-16T02:26:19.919Z,6.92
2022-11-16T02:26:56.117Z,6.92
2022-11-16T02:27:54.042Z,6.92
2022-11-16T02:28:27.175Z,6.92
2022-11-16T02:28:49.151Z,6.91
2022-11-16T02:29:20.977Z,6.89
2022-11-16T02:29:38.140Z,6.91
2022-11-16T02:29:53.438Z,6.91
2022-11-16T02:30:08.989Z,6.90
2022-11-16T02:30:22.453Z,6.90
2022-11-16T02:30:40.573Z,6.90
2022-11-16T02:30:57.396Z,6.91
2022-11-16T02:31:16.805Z,6.90
2022-11-16T02:31:36.514Z,6.90
2022-11-16T02:31:56.935Z,6.90
2022-11-16T02:32:14.759Z,6.90
2022-11-16T02:32:31.789Z,6.90
2022-11-16T02:32:48.293Z,6.90
2022-11-16T02:33:04.766Z,6.89
2022-11-16T02:33:22.234Z,6.90
2022-11-16T02:33:40.113Z,6.89
2022-11-16T02:33:56.035Z,6.89
2022-11-16T02:34:11.810Z,6.89
2022-11-16T02:34:27.301Z,6.89
2022-11-16T02:34:42.728Z,6.90
2022-11-16T02:35:03.495Z,6.90
2022-11-16T02:35:22.459Z,6.90
2022-11-16T02:35:40.657Z,6.90
2022-11-16T02:35:56.933Z,6.90
2022-11-16T02:36:13.027Z,6.90
2022-11-16T02:36:26.301Z,6.90
2022-11-16T02:36:42.192Z,6.87
2022-11-16T02:36:57.377Z,6.89
2022-11-16T02:37:13.525Z,6.90
2022-11-16T02:37:28.671Z,6.89
2022-11-16T02:37:47.960Z,6.90
2022-11-16T02:38:05.824Z,6.90
2022-11-16T02:38:23.060Z,6.90
2022-11-16T02:38:41.559Z,6.90
2022-11-16T02:38:58.022Z,6.90
2022-11-16T02:39:14.745Z,6.90
2022-11-16T02:39:31.957Z,6.89
2022-11-16T02:39:47.440Z,6.90
2022-11-16T02:40:03.414Z,6.89
2022-11-16T02:40:18.767Z,6.88
2022-11-16T02:40:34.022Z,6.89
2022-11-16T02:40:50.786Z,6.89
2022-11-16T02:41:08.428Z,6.90
2022-11-16T02:41:24.411Z,6.89
2022-11-16T02:41:41.565Z,6.91
2022-11-16T02:41:57.706Z,6.91
2022-11-16T02:42:15.959Z,6.90
2022-11-16T02:42:32.931Z,6.91
2022-11-16T02:42:51.179Z,6.91
2022-11-16T02:43:07.654Z,6.91
2022-11-16T02:43:26.463Z,6.91
2022-11-16T02:43:43.986Z,6.91
2022-11-16T02:44:02.606Z,6.92
2022-11-16T02:44:21.037Z,6.91
2022-11-16T02:44:36.369Z,6.91
2022-11-16T02:44:51.753Z,6.91
2022-11-16T02:45:09.138Z,6.91
2022-11-16T02:45:25.079Z,6.92
2022-11-16T02:45:41.914Z,6.92
2022-11-16T02:45:57.182Z,6.93
2022-11-16T02:46:13.521Z,6.92
2022-11-16T02:46:29.399Z,6.92
2022-11-16T02:46:46.866Z,6.92
2022-11-16T02:47:03.712Z,6.92
2022-11-16T02:47:20.995Z,6.94
2022-11-16T02:47:35.503Z,6.93
2022-11-16T02:47:50.758Z,6.92
2022-11-16T02:48:08.482Z,6.92
2022-11-16T02:48:25.988Z,6.91
2022-11-16T02:48:43.117Z,6.93
2022-11-16T02:49:00.303Z,6.93
2022-11-16T02:49:15.825Z,6.94
2022-11-16T02:49:30.587Z,6.92
2022-11-16T02:49:49.005Z,6.93
2022-11-16T02:50:05.216Z,6.91
2022-11-16T02:50:21.349Z,6.91
2022-11-16T02:50:35.818Z,6.89
2022-11-16T02:50:52.784Z,6.90
2022-11-16T02:51:08.088Z,6.90
2022-11-16T02:51:21.954Z,6.90
2022-11-16T02:51:37.726Z,6.90
2022-11-16T02:51:52.336Z,6.89
2022-11-16T02:52:05.209Z,6.88
2022-11-16T02:52:19.250Z,6.87
2022-11-16T02:52:31.831Z,6.88
2022-11-16T02:52:45.936Z,6.88
2022-11-16T02:52:58.524Z,6.87
2022-11-16T02:53:11.172Z,6.87
2022-11-16T02:53:25.239Z,6.86
2022-11-16T02:53:43.241Z,6.87
2022-11-16T02:54:02.330Z,6.86
2022-11-16T02:54:17.091Z,6.86
2022-11-16T02:54:30.710Z,6.85
2022-11-16T02:54:43.333Z,6.85
2022-11-16T02:54:55.933Z,6.83
2022-11-16T02:55:09.646Z,6.85
2022-11-16T02:55:23.943Z,6.83
2022-11-16T02:55:36.994Z,6.82
2022-11-16T02:55:49.677Z,6.82
2022-11-16T02:56:02.339Z,6.81
2022-11-16T02:56:16.555Z,6.81
2022-11-16T02:56:30.258Z,6.81
2022-11-16T02:56:50.459Z,6.80
2022-11-16T02:57:28.478Z,6.80
2022-11-16T02:57:48.329Z,6.81
2022-11-16T02:58:03.537Z,6.80
2022-11-16T02:58:20.518Z,6.80
2022-11-16T02:58:33.859Z,6.80
2022-11-16T02:58:47.692Z,6.80
2022-11-16T02:59:00.397Z,6.81
2022-11-16T02:59:17.549Z,6.81
2022-11-16T02:59:38.522Z,6.80
2022-11-16T02:59:55.507Z,6.81
2022-11-16T03:00:15.762Z,6.80
2022-11-16T03:00:36.109Z,6.80
2022-11-16T03:00:55.464Z,6.80
2022-11-16T03:01:13.481Z,6.78
2022-11-16T03:01:33.860Z,6.80
2022-11-16T03:01:52.229Z,6.80
2022-11-16T03:02:18.237Z,6.80
2022-11-16T03:02:36.385Z,6.78
2022-11-16T03:02:57.533Z,6.77
2022-11-16T03:03:21.490Z,6.80
2022-11-16T03:03:40.551Z,6.80
2022-11-16T03:03:58.571Z,6.83
2022-11-16T03:04:18.277Z,6.82
2022-11-16T03:04:37.407Z,6.82
2022-11-16T03:04:52.838Z,6.83
2022-11-16T03:05:11.108Z,6.82
2022-11-16T03:05:32.312Z,6.82
2022-11-16T03:05:49.653Z,6.82
2022-11-16T03:06:08.750Z,6.82
2022-11-16T03:06:24.828Z,6.82
2022-11-16T03:06:41.764Z,6.83
2022-11-16T03:06:56.787Z,6.84
2022-11-16T03:07:13.791Z,6.84
2022-11-16T03:07:31.515Z,6.84
2022-11-16T03:07:48.595Z,6.84
2022-11-16T03:08:10.319Z,6.84
2022-11-16T03:08:29.185Z,6.86
2022-11-16T03:08:46.310Z,6.86
2022-11-16T03:09:04.799Z,6.87
2022-11-16T03:09:22.525Z,6.86
2022-11-16T03:09:38.989Z,6.85
2022-11-16T03:09:54.004Z,6.86
2022-11-16T03:10:07.743Z,6.87
2022-11-16T03:10:36.921Z,6.87
2022-11-16T03:11:11.748Z,6.87
2022-11-16T03:11:43.064Z,6.88
2022-11-16T03:12:00.165Z,6.88
2022-11-16T03:12:18.774Z,6.88
2022-11-16T03:12:33.859Z,6.88
2022-11-16T03:12:47.241Z,6.88
2022-11-16T03:13:01.734Z,6.89
2022-11-16T03:13:16.671Z,6.88
2022-11-16T03:13:34.627Z,6.88
2022-11-16T03:13:48.612Z,6.90
2022-11-16T03:14:06.558Z,6.89
2022-11-16T03:14:23.074Z,6.88
2022-11-16T03:14:43.044Z,6.88
2022-11-16T03:14:59.190Z,6.89
2022-11-16T03:15:13.207Z,6.89
2022-11-16T03:15:26.200Z,6.89
2022-11-16T03:15:41.496Z,6.90
2022-11-16T03:15:56.136Z,6.90
2022-11-16T03:16:15.964Z,6.91
2022-11-16T03:16:35.004Z,6.90
2022-11-16T03:16:51.130Z,6.89
2022-11-16T03:17:07.479Z,6.89
2022-11-16T03:17:23.645Z,6.88
2022-11-16T03:17:40.483Z,6.89
2022-11-16T03:17:54.571Z,6.88
2022-11-16T03:18:09.809Z,6.89
2022-11-16T03:18:26.716Z,6.89
2022-11-16T03:18:41.096Z,6.89
2022-11-16T03:18:58.516Z,6.89
2022-11-16T03:19:14.760Z,6.89
2022-11-16T03:19:38.556Z,6.89
2022-11-16T03:19:57.899Z,6.88
2022-11-16T03:20:15.117Z,6.89
2022-11-16T03:20:32.387Z,6.87
2022-11-16T03:20:46.710Z,6.87
2022-11-16T03:21:10.476Z,6.86
2022-11-16T03:21:28.478Z,6.86
2022-11-16T03:21:47.303Z,6.85
2022-11-16T03:22:04.172Z,6.84
2022-11-16T03:22:22.902Z,6.84
2022-11-16T03:22:40.427Z,6.84
2022-11-16T03:22:57.608Z,6.84
2022-11-16T03:23:12.804Z,6.83
2022-11-16T03:23:25.512Z,6.84
2022-11-16T03:23:38.295Z,6.84
2022-11-16T03:23:51.774Z,6.84
2022-11-16T03:24:06.421Z,6.83
2022-11-16T03:24:20.520Z,6.84
2022-11-16T03:24:33.507Z,6.83
2022-11-16T03:24:46.327Z,6.83
2022-11-16T03:24:59.024Z,6.84
2022-11-16T03:25:15.155Z,6.82
2022-11-16T03:25:32.354Z,6.81
2022-11-16T03:25:52.249Z,6.80